createdAt,value
2023-01-17T00:02:59.415Z,4.50
2023-01-17T00:08:20.192Z,4.50
2023-01-17T00:13:22.225Z,4.40
2023-01-17T00:18:24.243Z,4.40
2023-01-17T00:23:45.074Z,4.30
2023-01-17T00:28:47.351Z,4.20
2023-01-17T00:33:49.390Z,4.00
2023-01-17T00:38:51.402Z,4.00
2023-01-17T00:44:12.236Z,3.90
2023-01-17T00:49:32.705Z,3.70
2023-01-17T00:54:53.490Z,3.50
2023-01-17T01:00:13.845Z,3.40
2023-01-17T01:05:35.206Z,3.40
2023-01-17T01:10:57.480Z,3.50
2023-01-17T01:16:22.547Z,3.50
2023-01-17T01:21:43.134Z,3.40
2023-01-17T01:27:03.647Z,3.30
2023-01-17T01:32:24.385Z,3.40
2023-01-17T01:37:26.455Z,3.40
2023-01-17T01:42:28.525Z,3.40
2023-01-17T01:47:32.763Z,3.40
2023-01-17T01:52:36.978Z,3.40
2023-01-17T01:57:44.095Z,3.50
2023-01-17T02:02:49.731Z,3.50
2023-01-17T02:08:14.706Z,3.50
2023-01-17T02:13:19.978Z,3.50
2023-01-17T02:18:29.763Z,3.60
2023-01-17T02:23:55.563Z,3.60
2023-01-17T02:29:34.816Z,3.60
2023-01-17T02:34:56.588Z,3.50
2023-01-17T02:40:10.766Z,3.50
2023-01-17T02:45:18.326Z,3.40
2023-01-17T02:50:25.985Z,3.40
2023-01-17T02:55:42.227Z,3.40
2023-01-17T03:01:09.591Z,3.30
2023-01-17T03:06:23.627Z,3.50
2023-01-17T03:11:27.200Z,3.50
2023-01-17T03:16:32.122Z,3.60
2023-01-17T03:21:34.158Z,3.50
2023-01-17T03:26:36.137Z,3.50
2023-01-17T03:31:38.216Z,3.50
2023-01-17T03:36:40.273Z,3.50
2023-01-17T03:41:42.282Z,3.60
2023-01-17T03:46:44.581Z,3.60
2023-01-17T03:51:46.620Z,3.60
2023-01-17T03:56:48.650Z,3.60
2023-01-17T04:01:50.893Z,3.70
2023-01-17T04:06:53.122Z,3.60
2023-01-17T04:11:55.164Z,3.60
2023-01-17T04:16:57.517Z,3.60
2023-01-17T04:21:59.612Z,3.60
2023-01-17T04:27:02.008Z,3.60
2023-01-17T04:32:04.241Z,3.60
2023-01-17T04:37:06.284Z,3.60
2023-01-17T04:42:08.322Z,3.60
2023-01-17T04:47:10.323Z,3.60
2023-01-17T04:52:12.420Z,3.50
2023-01-17T04:57:15.435Z,3.60
2023-01-17T05:02:17.476Z,3.60
2023-01-17T05:07:19.480Z,3.70
2023-01-17T05:12:21.563Z,3.70
2023-01-17T05:17:23.672Z,3.70
2023-01-17T05:22:25.709Z,3.70
2023-01-17T05:27:27.711Z,3.70
2023-01-17T05:32:29.853Z,3.70
2023-01-17T05:37:31.876Z,3.70
2023-01-17T05:42:33.905Z,3.80
2023-01-17T05:47:35.898Z,3.80
2023-01-17T05:52:37.941Z,3.70
2023-01-17T05:57:39.975Z,3.70
2023-01-17T06:02:42.126Z,3.80
2023-01-17T06:07:45.930Z,3.70
2023-01-17T06:12:48.912Z,3.80
2023-01-17T06:17:50.940Z,3.80
2023-01-17T06:22:53.022Z,3.80
2023-01-17T06:27:55.391Z,3.80
2023-01-17T06:32:57.470Z,3.80
2023-01-17T06:38:00.481Z,3.80
2023-01-17T06:43:04.227Z,3.70
2023-01-17T06:48:06.528Z,3.70
2023-01-17T06:53:08.563Z,3.60
2023-01-17T06:58:10.663Z,3.50
2023-01-17T07:03:27.168Z,3.50
2023-01-17T07:08:29.682Z,3.50
2023-01-17T07:13:36.445Z,3.50
2023-01-17T07:18:38.603Z,3.60
2023-01-17T07:23:41.008Z,3.60
2023-01-17T07:28:43.205Z,3.70
2023-01-17T07:33:45.247Z,3.70
2023-01-17T07:38:47.362Z,3.70
2023-01-17T07:43:49.598Z,3.70
2023-01-17T07:48:51.653Z,3.70
2023-01-17T07:53:53.650Z,3.60
2023-01-17T07:58:55.696Z,3.60
2023-01-17T08:03:57.937Z,3.60
2023-01-17T08:09:00.052Z,3.50
2023-01-17T08:14:02.114Z,3.50
2023-01-17T08:19:04.188Z,3.50
2023-01-17T08:24:06.514Z,3.40
2023-01-17T08:29:09.273Z,3.40
2023-01-17T08:34:11.390Z,3.40
2023-01-17T08:39:14.693Z,3.40
2023-01-17T08:44:16.804Z,3.40
2023-01-17T08:49:19.015Z,3.40
2023-01-17T08:54:22.885Z,3.50
2023-01-17T08:59:24.982Z,3.50
2023-01-17T09:04:27.121Z,3.70
2023-01-17T09:09:29.212Z,3.90
2023-01-17T09:14:31.285Z,4.40
2023-01-17T09:19:33.407Z,4.60
2023-01-17T09:24:35.533Z,4.70
2023-01-17T09:29:37.580Z,4.70
2023-01-17T09:34:39.571Z,4.40
2023-01-17T09:39:41.611Z,4.20
2023-01-17T09:44:48.007Z,4.20
2023-01-17T09:49:50.855Z,4.10
2023-01-17T09:54:53.237Z,4.20
2023-01-17T10:00:28.167Z,4.20
2023-01-17T10:05:53.515Z,4.20
2023-01-17T10:11:18.504Z,4.20
2023-01-17T10:16:38.849Z,4.30
2023-01-17T10:21:50.149Z,4.40
2023-01-17T10:26:56.317Z,4.60
2023-01-17T10:32:02.818Z,4.80
2023-01-17T10:37:20.876Z,5.00
2023-01-17T10:42:25.087Z,5.40
2023-01-17T10:47:30.855Z,5.90
2023-01-17T10:52:53.562Z,6.40
2023-01-17T10:57:57.918Z,6.20
2023-01-17T11:03:01.794Z,5.70
2023-01-17T11:08:05.126Z,5.40
2023-01-17T11:13:26.624Z,5.10
2023-01-17T11:18:31.696Z,4.80
2023-01-17T11:23:34.340Z,4.80
2023-01-17T11:28:38.743Z,4.80
2023-01-17T11:33:53.897Z,4.80
2023-01-17T11:39:21.311Z,4.80
2023-01-17T11:44:26.306Z,4.80
2023-01-17T11:49:29.569Z,4.60
2023-01-17T11:54:38.957Z,4.40
2023-01-17T11:59:44.769Z,4.40
2023-01-17T12:04:53.008Z,4.20
2023-01-17T12:10:38.331Z,4.20
2023-01-17T12:16:01.749Z,4.10
2023-01-17T12:21:14.554Z,3.90
2023-01-17T12:26:32.324Z,3.90
2023-01-17T12:31:46.341Z,3.90
2023-01-17T12:36:54.727Z,3.90
2023-01-17T12:42:32.816Z,4.00
2023-01-17T12:47:40.314Z,4.00
2023-01-17T12:52:59.817Z,4.10
2023-01-17T12:58:06.079Z,4.20
2023-01-17T13:03:14.413Z,4.20
2023-01-17T13:08:43.974Z,4.40
2023-01-17T13:13:47.392Z,4.40
2023-01-17T13:18:51.599Z,4.40
2023-01-17T13:24:02.084Z,4.40
2023-01-17T13:29:32.991Z,4.30
2023-01-17T13:34:56.898Z,4.10
2023-01-17T13:40:04.771Z,4.20
2023-01-17T13:45:09.237Z,4.20
2023-01-17T13:50:49.318Z,4.20
2023-01-17T13:55:53.436Z,4.30
2023-01-17T14:00:55.938Z,4.40
2023-01-17T14:05:58.115Z,4.20
2023-01-17T14:11:09.991Z,4.30
2023-01-17T14:16:21.243Z,4.40
2023-01-17T14:21:32.562Z,4.40
2023-01-17T14:26:41.186Z,4.40
2023-01-17T14:31:43.476Z,4.50
2023-01-17T14:36:45.665Z,4.60
2023-01-17T14:41:47.985Z,4.70
2023-01-17T14:46:50.887Z,4.70
2023-01-17T14:52:06.484Z,4.70
2023-01-17T14:57:28.908Z,4.70
2023-01-17T15:02:31.986Z,4.80
2023-01-17T15:07:36.404Z,4.90
2023-01-17T15:12:38.860Z,5.00
2023-01-17T15:17:40.949Z,5.10
2023-01-17T15:22:43.178Z,5.30
2023-01-17T15:27:45.319Z,5.50
2023-01-17T15:32:48.142Z,5.40
2023-01-17T15:37:54.484Z,5.30
2023-01-17T15:42:59.536Z,5.30
2023-01-17T15:48:40.542Z,5.20
2023-01-17T15:53:43.311Z,5.20
2023-01-17T15:58:47.717Z,5.10
2023-01-17T16:03:56.252Z,5.10
2023-01-17T16:08:58.255Z,5.10
2023-01-17T16:14:00.255Z,5.10
2023-01-17T16:19:03.078Z,5.20
2023-01-17T16:24:09.563Z,5.30
2023-01-17T16:29:11.581Z,5.30
2023-01-17T16:34:13.728Z,5.10
2023-01-17T16:39:15.755Z,5.00
2023-01-17T16:44:17.835Z,4.90
2023-01-17T16:49:19.831Z,4.90
2023-01-17T16:54:21.960Z,4.80
2023-01-17T16:59:24.042Z,4.70
2023-01-17T17:04:26.080Z,4.50
2023-01-17T17:09:28.178Z,4.50
2023-01-17T17:14:30.293Z,4.50
2023-01-17T17:19:32.333Z,4.40
2023-01-17T17:24:34.416Z,4.40
2023-01-17T17:29:36.610Z,4.40
2023-01-17T17:34:38.790Z,4.30
2023-01-17T17:39:42.239Z,4.30
2023-01-17T17:44:44.258Z,4.30
2023-01-17T17:49:46.336Z,4.20
2023-01-17T17:54:48.990Z,4.20
2023-01-17T17:59:51.025Z,4.20
2023-01-17T18:04:53.302Z,4.20
2023-01-17T18:09:55.407Z,4.10
2023-01-17T18:14:57.508Z,4.10
2023-01-17T18:19:59.684Z,4.00
2023-01-17T18:25:01.735Z,4.10
2023-01-17T18:30:03.946Z,4.10
2023-01-17T18:35:06.732Z,4.00
2023-01-17T18:40:09.583Z,3.90
2023-01-17T18:45:11.684Z,3.90
2023-01-17T18:50:13.760Z,3.90
2023-01-17T18:55:15.850Z,3.90
2023-01-17T19:00:19.598Z,3.70
2023-01-17T19:05:21.684Z,3.70
2023-01-17T19:10:23.728Z,3.70
2023-01-17T19:15:25.712Z,3.70
2023-01-17T19:20:28.142Z,3.80
2023-01-17T19:25:30.440Z,3.90
2023-01-17T19:30:34.325Z,3.80
2023-01-17T19:35:37.505Z,3.80
2023-01-17T19:40:39.570Z,3.70
2023-01-17T19:45:41.581Z,3.70
2023-01-17T19:50:43.606Z,3.80
2023-01-17T19:55:46.944Z,3.70
2023-01-17T20:00:49.164Z,3.80
2023-01-17T20:05:57.611Z,3.70
2023-01-17T20:11:04.807Z,3.80
2023-01-17T20:16:09.040Z,3.80
2023-01-17T20:21:20.337Z,3.90
2023-01-17T20:26:29.675Z,4.00
2023-01-17T20:31:32.281Z,3.90
2023-01-17T20:36:34.739Z,3.90
2023-01-17T20:41:41.714Z,3.80
2023-01-17T20:46:44.004Z,3.80
2023-01-17T20:51:47.603Z,3.80
2023-01-17T20:56:49.678Z,3.80
2023-01-17T21:01:51.951Z,3.80
2023-01-17T21:06:54.741Z,3.80
2023-01-17T21:12:01.221Z,3.80
2023-01-17T21:17:03.616Z,3.80
2023-01-17T21:22:05.959Z,3.80
2023-01-17T21:27:09.128Z,3.80
2023-01-17T21:32:11.287Z,3.80
2023-01-17T21:37:14.648Z,3.80
2023-01-17T21:42:16.986Z,3.90
2023-01-17T21:47:19.021Z,3.90
2023-01-17T21:52:21.198Z,4.00
2023-01-17T21:57:41.635Z,4.10
2023-01-17T22:02:48.170Z,4.20
2023-01-17T22:08:11.454Z,4.30
2023-01-17T22:13:18.315Z,4.30
2023-01-17T22:18:20.433Z,4.30
2023-01-17T22:23:22.779Z,4.30
2023-01-17T22:28:24.836Z,4.20
2023-01-17T22:33:27.022Z,4.20
2023-01-17T22:38:29.698Z,4.20
2023-01-17T22:43:31.782Z,4.20
2023-01-17T22:48:35.059Z,4.10
2023-01-17T22:53:45.290Z,4.00
2023-01-17T22:58:49.112Z,4.00
2023-01-17T23:03:57.407Z,4.00
2023-01-17T23:09:02.601Z,4.00
2023-01-17T23:14:17.737Z,4.10
2023-01-17T23:19:22.791Z,4.30
2023-01-17T23:24:25.051Z,4.40
2023-01-17T23:29:27.153Z,4.50
2023-01-17T23:34:29.216Z,4.60
2023-01-17T23:39:31.288Z,4.80
2023-01-17T23:44:33.459Z,4.70
2023-01-17T23:49:35.600Z,4.70
2023-01-17T23:54:38.672Z,4.70
2023-01-17T23:59:40.745Z,4.60
